sensor_id;sensor_type;location;lat;lon;timestamp;P1;durP1;ratioP1;P2;durP2;ratioP2
6527;SDS011;64597;42.664;23.256;2024-02-16T00:01:07;9.38;;;4.70;;
6527;SDS011;64597;42.664;23.256;2024-02-16T00:03:35;9.50;;;4.13;;
6527;SDS011;64597;42.664;23.256;2024-02-16T00:06:01;8.90;;;4.43;;
6527;SDS011;64597;42.664;23.256;2024-02-16T00:08:27;9.85;;;5.22;;
6527;SDS011;64597;42.664;23.256;2024-02-16T00:10:53;11.32;;;5.47;;
6527;SDS011;64597;42.664;23.256;2024-02-16T00:13:19;7.68;;;5.07;;
6527;SDS011;64597;42.664;23.256;2024-02-16T00:15:47;11.23;;;5.72;;
6527;SDS011;64597;42.664;23.256;2024-02-16T00:18:14;9.05;;;4.68;;
6527;SDS011;64597;42.664;23.256;2024-02-16T00:20:40;8.43;;;4.25;;
6527;SDS011;64597;42.664;23.256;2024-02-16T00:23:07;9.60;;;4.05;;
6527;SDS011;64597;42.664;23.256;2024-02-16T00:25:35;9.65;;;4.72;;
6527;SDS011;64597;42.664;23.256;2024-02-16T00:32:56;5.45;;;3.53;;
6527;SDS011;64597;42.664;23.256;2024-02-16T00:35:23;8.18;;;3.83;;
6527;SDS011;64597;42.664;23.256;2024-02-16T00:37:49;8.10;;;4.40;;
6527;SDS011;64597;42.664;23.256;2024-02-16T00:40:15;8.88;;;4.63;;
6527;SDS011;64597;42.664;23.256;2024-02-16T00:42:41;8.05;;;4.15;;
6527;SDS011;64597;42.664;23.256;2024-02-16T00:45:09;7.88;;;4.40;;
6527;SDS011;64597;42.664;23.256;2024-02-16T00:47:39;10.80;;;4.15;;
6527;SDS011;64597;42.664;23.256;2024-02-16T00:50:06;7.63;;;4.30;;
6527;SDS011;64597;42.664;23.256;2024-02-16T00:52:34;7.03;;;4.15;;
6527;SDS011;64597;42.664;23.256;2024-02-16T00:55:00;8.93;;;4.82;;
6527;SDS011;64597;42.664;23.256;2024-02-16T00:57:27;5.72;;;3.88;;
6527;SDS011;64597;42.664;23.256;2024-02-16T00:59:54;8.30;;;5.10;;
6527;SDS011;64597;42.664;23.256;2024-02-16T01:02:21;6.82;;;4.00;;
6527;SDS011;64597;42.664;23.256;2024-02-16T01:04:47;7.25;;;4.30;;
6527;SDS011;64597;42.664;23.256;2024-02-16T01:07:16;7.35;;;4.22;;
6527;SDS011;64597;42.664;23.256;2024-02-16T01:09:42;10.60;;;4.15;;
6527;SDS011;64597;42.664;23.256;2024-02-16T01:12:08;6.65;;;4.13;;
6527;SDS011;64597;42.664;23.256;2024-02-16T01:14:34;7.43;;;3.97;;
6527;SDS011;64597;42.664;23.256;2024-02-16T01:17:00;8.10;;;4.25;;
6527;SDS011;64597;42.664;23.256;2024-02-16T01:19:26;8.05;;;4.20;;
6527;SDS011;64597;42.664;23.256;2024-02-16T01:21:51;6.95;;;4.28;;
6527;SDS011;64597;42.664;23.256;2024-02-16T01:24:22;8.50;;;4.30;;
6527;SDS011;64597;42.664;23.256;2024-02-16T01:26:49;7.47;;;3.95;;
6527;SDS011;64597;42.664;23.256;2024-02-16T01:29:14;5.75;;;3.45;;
6527;SDS011;64597;42.664;23.256;2024-02-16T01:31:41;5.85;;;3.78;;
6527;SDS011;64597;42.664;23.256;2024-02-16T01:34:06;8.93;;;4.57;;
6527;SDS011;64597;42.664;23.256;2024-02-16T01:36:33;9.00;;;4.45;;
6527;SDS011;64597;42.664;23.256;2024-02-16T01:38:59;9.10;;;4.22;;
6527;SDS011;64597;42.664;23.256;2024-02-16T01:41:25;9.27;;;4.07;;
6527;SDS011;64597;42.664;23.256;2024-02-16T01:43:55;8.20;;;4.25;;
6527;SDS011;64597;42.664;23.256;2024-02-16T01:57:31;10.77;;;5.15;;
6527;SDS011;64597;42.664;23.256;2024-02-16T01:59:58;10.73;;;5.28;;
6527;SDS011;64597;42.664;23.256;2024-02-16T02:02:25;12.65;;;5.50;;
6527;SDS011;64597;42.664;23.256;2024-02-16T02:04:55;8.32;;;4.68;;
6527;SDS011;64597;42.664;23.256;2024-02-16T02:07:24;14.45;;;5.30;;
6527;SDS011;64597;42.664;23.256;2024-02-16T02:09:55;7.72;;;4.15;;
6527;SDS011;64597;42.664;23.256;2024-02-16T02:12:21;12.15;;;4.82;;
6527;SDS011;64597;42.664;23.256;2024-02-16T02:14:48;15.20;;;5.07;;
6527;SDS011;64597;42.664;23.256;2024-02-16T02:17:16;12.98;;;5.05;;
6527;SDS011;64597;42.664;23.256;2024-02-16T02:19:47;10.07;;;5.05;;
6527;SDS011;64597;42.664;23.256;2024-02-16T02:22:17;10.88;;;4.75;;
6527;SDS011;64597;42.664;23.256;2024-02-16T02:24:45;10.63;;;3.80;;
6527;SDS011;64597;42.664;23.256;2024-02-16T02:27:11;12.48;;;4.70;;
6527;SDS011;64597;42.664;23.256;2024-02-16T02:29:38;8.20;;;4.30;;
6527;SDS011;64597;42.664;23.256;2024-02-16T02:32:07;8.23;;;3.95;;
6527;SDS011;64597;42.664;23.256;2024-02-16T02:34:35;8.93;;;3.85;;
6527;SDS011;64597;42.664;23.256;2024-02-16T02:37:04;7.53;;;4.65;;
6527;SDS011;64597;42.664;23.256;2024-02-16T02:39:32;11.00;;;5.22;;
6527;SDS011;64597;42.664;23.256;2024-02-16T02:41:57;6.50;;;4.65;;
6527;SDS011;64597;42.664;23.256;2024-02-16T02:44:23;8.20;;;4.18;;
6527;SDS011;64597;42.664;23.256;2024-02-16T02:46:51;8.93;;;4.32;;
6527;SDS011;64597;42.664;23.256;2024-02-16T02:49:20;5.85;;;3.53;;
6527;SDS011;64597;42.664;23.256;2024-02-16T02:51:47;10.45;;;3.92;;
6527;SDS011;64597;42.664;23.256;2024-02-16T02:54:15;10.27;;;3.75;;
6527;SDS011;64597;42.664;23.256;2024-02-16T02:56:41;5.85;;;3.58;;
6527;SDS011;64597;42.664;23.256;2024-02-16T02:59:08;9.35;;;4.18;;
6527;SDS011;64597;42.664;23.256;2024-02-16T03:01:36;7.25;;;4.40;;
6527;SDS011;64597;42.664;23.256;2024-02-16T03:04:03;8.85;;;4.57;;
6527;SDS011;64597;42.664;23.256;2024-02-16T03:06:29;8.40;;;3.38;;
6527;SDS011;64597;42.664;23.256;2024-02-16T03:08:56;10.20;;;4.00;;
6527;SDS011;64597;42.664;23.256;2024-02-16T03:11:23;7.72;;;3.63;;
6527;SDS011;64597;42.664;23.256;2024-02-16T03:13:49;12.45;;;5.35;;
6527;SDS011;64597;42.664;23.256;2024-02-16T03:16:14;13.18;;;4.90;;
6527;SDS011;64597;42.664;23.256;2024-02-16T03:18:40;9.73;;;4.22;;
6527;SDS011;64597;42.664;23.256;2024-02-16T03:21:12;7.55;;;3.75;;
6527;SDS011;64597;42.664;23.256;2024-02-16T03:23:41;8.40;;;3.55;;
6527;SDS011;64597;42.664;23.256;2024-02-16T03:26:15;9.48;;;4.63;;
6527;SDS011;64597;42.664;23.256;2024-02-16T03:28:44;11.25;;;4.40;;
6527;SDS011;64597;42.664;23.256;2024-02-16T03:31:22;9.82;;;4.25;;
6527;SDS011;64597;42.664;23.256;2024-02-16T03:33:50;6.43;;;4.22;;
6527;SDS011;64597;42.664;23.256;2024-02-16T03:36:17;9.13;;;3.58;;
6527;SDS011;64597;42.664;23.256;2024-02-16T03:38:47;7.63;;;4.22;;
6527;SDS011;64597;42.664;23.256;2024-02-16T03:41:21;7.43;;;3.90;;
6527;SDS011;64597;42.664;23.256;2024-02-16T03:43:48;7.00;;;3.70;;
6527;SDS011;64597;42.664;23.256;2024-02-16T03:46:16;9.18;;;4.15;;
6527;SDS011;64597;42.664;23.256;2024-02-16T03:48:48;6.85;;;4.00;;
6527;SDS011;64597;42.664;23.256;2024-02-16T03:51:26;11.77;;;3.70;;
6527;SDS011;64597;42.664;23.256;2024-02-16T03:53:56;6.38;;;3.08;;
6527;SDS011;64597;42.664;23.256;2024-02-16T03:56:27;6.32;;;3.65;;
6527;SDS011;64597;42.664;23.256;2024-02-16T03:59:16;4.72;;;3.45;;
6527;SDS011;64597;42.664;23.256;2024-02-16T04:07:38;6.55;;;3.45;;
6527;SDS011;64597;42.664;23.256;2024-02-16T04:10:04;6.50;;;3.70;;
6527;SDS011;64597;42.664;23.256;2024-02-16T04:12:32;6.25;;;3.55;;
6527;SDS011;64597;42.664;23.256;2024-02-16T04:14:59;7.15;;;4.05;;
6527;SDS011;64597;42.664;23.256;2024-02-16T04:17:25;7.68;;;4.13;;
6527;SDS011;64597;42.664;23.256;2024-02-16T04:19:52;6.15;;;3.67;;
6527;SDS011;64597;42.664;23.256;2024-02-16T04:22:18;6.72;;;3.03;;
6527;SDS011;64597;42.664;23.256;2024-02-16T04:24:45;4.40;;;3.38;;
6527;SDS011;64597;42.664;23.256;2024-02-16T04:27:12;5.50;;;3.60;;
6527;SDS011;64597;42.664;23.256;2024-02-16T04:29:38;9.00;;;3.72;;
6527;SDS011;64597;42.664;23.256;2024-02-16T04:32:04;5.82;;;3.88;;
6527;SDS011;64597;42.664;23.256;2024-02-16T04:34:31;6.15;;;3.38;;
6527;SDS011;64597;42.664;23.256;2024-02-16T04:36:58;7.88;;;3.60;;
6527;SDS011;64597;42.664;23.256;2024-02-16T04:39:24;11.68;;;4.93;;
6527;SDS011;64597;42.664;23.256;2024-02-16T04:41:51;10.45;;;3.70;;
6527;SDS011;64597;42.664;23.256;2024-02-16T04:44:19;8.45;;;4.40;;
6527;SDS011;64597;42.664;23.256;2024-02-16T04:46:46;8.38;;;4.22;;
6527;SDS011;64597;42.664;23.256;2024-02-16T04:49:13;7.97;;;4.38;;
6527;SDS011;64597;42.664;23.256;2024-02-16T04:51:41;7.53;;;4.50;;
6527;SDS011;64597;42.664;23.256;2024-02-16T04:54:07;5.70;;;3.55;;
6527;SDS011;64597;42.664;23.256;2024-02-16T04:56:36;9.05;;;3.97;;
6527;SDS011;64597;42.664;23.256;2024-02-16T04:59:02;7.80;;;3.92;;
6527;SDS011;64597;42.664;23.256;2024-02-16T05:01:30;11.88;;;5.05;;
6527;SDS011;64597;42.664;23.256;2024-02-16T05:03:57;6.97;;;4.57;;
6527;SDS011;64597;42.664;23.256;2024-02-16T05:06:25;8.27;;;4.55;;
6527;SDS011;64597;42.664;23.256;2024-02-16T05:08:52;21.60;;;9.23;;
6527;SDS011;64597;42.664;23.256;2024-02-16T05:11:18;17.52;;;7.68;;
6527;SDS011;64597;42.664;23.256;2024-02-16T05:13:45;14.30;;;6.65;;
6527;SDS011;64597;42.664;23.256;2024-02-16T05:16:12;7.22;;;2.70;;
6527;SDS011;64597;42.664;23.256;2024-02-16T05:18:41;17.60;;;7.85;;
6527;SDS011;64597;42.664;23.256;2024-02-16T05:21:06;18.52;;;8.00;;
6527;SDS011;64597;42.664;23.256;2024-02-16T05:23:32;9.32;;;6.30;;
6527;SDS011;64597;42.664;23.256;2024-02-16T05:25:59;10.35;;;6.78;;
6527;SDS011;64597;42.664;23.256;2024-02-16T05:28:25;13.60;;;6.55;;
6527;SDS011;64597;42.664;23.256;2024-02-16T05:30:52;9.13;;;5.50;;
6527;SDS011;64597;42.664;23.256;2024-02-16T05:33:19;12.65;;;5.50;;
6527;SDS011;64597;42.664;23.256;2024-02-16T05:35:46;10.50;;;5.72;;
6527;SDS011;64597;42.664;23.256;2024-02-16T05:38:20;8.35;;;5.80;;
6527;SDS011;64597;42.664;23.256;2024-02-16T05:40:58;12.05;;;5.45;;
6527;SDS011;64597;42.664;23.256;2024-02-16T05:43:24;9.82;;;5.47;;
6527;SDS011;64597;42.664;23.256;2024-02-16T05:45:52;10.38;;;4.65;;
6527;SDS011;64597;42.664;23.256;2024-02-16T05:48:21;9.52;;;5.25;;
6527;SDS011;64597;42.664;23.256;2024-02-16T05:50:49;7.72;;;5.03;;
6527;SDS011;64597;42.664;23.256;2024-02-16T05:53:17;8.90;;;4.30;;
6527;SDS011;64597;42.664;23.256;2024-02-16T05:55:46;11.43;;;7.22;;
6527;SDS011;64597;42.664;23.256;2024-02-16T05:58:13;19.65;;;10.50;;
6527;SDS011;64597;42.664;23.256;2024-02-16T06:00:41;10.20;;;5.55;;
6527;SDS011;64597;42.664;23.256;2024-02-16T06:03:07;9.07;;;5.65;;
6527;SDS011;64597;42.664;23.256;2024-02-16T06:05:35;11.98;;;6.13;;
6527;SDS011;64597;42.664;23.256;2024-02-16T06:08:04;10.80;;;6.20;;
6527;SDS011;64597;42.664;23.256;2024-02-16T06:10:31;11.38;;;7.20;;
6527;SDS011;64597;42.664;23.256;2024-02-16T06:12:58;15.07;;;7.68;;
6527;SDS011;64597;42.664;23.256;2024-02-16T06:15:25;17.42;;;8.43;;
6527;SDS011;64597;42.664;23.256;2024-02-16T06:17:53;20.17;;;9.52;;
6527;SDS011;64597;42.664;23.256;2024-02-16T06:20:19;18.35;;;8.80;;
6527;SDS011;64597;42.664;23.256;2024-02-16T06:22:45;17.50;;;8.98;;
6527;SDS011;64597;42.664;23.256;2024-02-16T06:25:13;18.30;;;9.15;;
6527;SDS011;64597;42.664;23.256;2024-02-16T06:28:32;15.25;;;8.23;;
6527;SDS011;64597;42.664;23.256;2024-02-16T06:31:01;16.20;;;9.32;;
6527;SDS011;64597;42.664;23.256;2024-02-16T06:33:27;15.90;;;8.63;;
6527;SDS011;64597;42.664;23.256;2024-02-16T06:35:54;16.15;;;8.82;;
6527;SDS011;64597;42.664;23.256;2024-02-16T06:38:22;14.52;;;7.28;;
6527;SDS011;64597;42.664;23.256;2024-02-16T06:40:48;14.38;;;8.57;;
6527;SDS011;64597;42.664;23.256;2024-02-16T06:43:14;15.52;;;7.82;;
6527;SDS011;64597;42.664;23.256;2024-02-16T06:45:40;17.17;;;10.40;;
6527;SDS011;64597;42.664;23.256;2024-02-16T06:48:07;15.52;;;9.13;;
6527;SDS011;64597;42.664;23.256;2024-02-16T06:50:33;14.15;;;9.60;;
6527;SDS011;64597;42.664;23.256;2024-02-16T06:53:00;18.33;;;11.10;;
6527;SDS011;64597;42.664;23.256;2024-02-16T06:55:26;11.38;;;7.05;;
6527;SDS011;64597;42.664;23.256;2024-02-16T06:57:52;15.05;;;7.43;;
6527;SDS011;64597;42.664;23.256;2024-02-16T07:00:18;21.80;;;13.25;;
6527;SDS011;64597;42.664;23.256;2024-02-16T07:02:45;15.25;;;9.80;;
6527;SDS011;64597;42.664;23.256;2024-02-16T07:05:12;13.10;;;9.52;;
6527;SDS011;64597;42.664;23.256;2024-02-16T07:07:38;12.25;;;8.05;;
6527;SDS011;64597;42.664;23.256;2024-02-16T07:10:05;15.63;;;8.85;;
6527;SDS011;64597;42.664;23.256;2024-02-16T07:12:39;13.05;;;8.18;;
6527;SDS011;64597;42.664;23.256;2024-02-16T07:15:07;11.40;;;7.05;;
6527;SDS011;64597;42.664;23.256;2024-02-16T07:17:36;11.95;;;6.70;;
6527;SDS011;64597;42.664;23.256;2024-02-16T07:20:07;10.60;;;7.20;;
6527;SDS011;64597;42.664;23.256;2024-02-16T07:22:33;10.15;;;5.30;;
6527;SDS011;64597;42.664;23.256;2024-02-16T07:25:00;9.07;;;5.15;;
6527;SDS011;64597;42.664;23.256;2024-02-16T07:27:30;7.25;;;4.55;;
6527;SDS011;64597;42.664;23.256;2024-02-16T07:29:56;7.90;;;4.20;;
6527;SDS011;64597;42.664;23.256;2024-02-16T07:32:23;11.25;;;4.57;;
6527;SDS011;64597;42.664;23.256;2024-02-16T07:34:50;6.32;;;3.75;;
6527;SDS011;64597;42.664;23.256;2024-02-16T07:37:16;7.55;;;4.63;;
6527;SDS011;64597;42.664;23.256;2024-02-16T07:39:42;7.25;;;3.60;;
6527;SDS011;64597;42.664;23.256;2024-02-16T07:42:08;5.15;;;2.70;;
6527;SDS011;64597;42.664;23.256;2024-02-16T07:44:39;5.32;;;3.30;;
6527;SDS011;64597;42.664;23.256;2024-02-16T07:47:05;4.60;;;3.63;;
6527;SDS011;64597;42.664;23.256;2024-02-16T07:49:31;5.82;;;3.25;;
6527;SDS011;64597;42.664;23.256;2024-02-16T07:52:00;10.13;;;3.75;;
6527;SDS011;64597;42.664;23.256;2024-02-16T07:54:27;7.68;;;4.32;;
6527;SDS011;64597;42.664;23.256;2024-02-16T07:56:55;20.02;;;5.78;;
6527;SDS011;64597;42.664;23.256;2024-02-16T07:59:21;11.02;;;5.18;;
6527;SDS011;64597;42.664;23.256;2024-02-16T08:01:49;9.45;;;4.78;;
6527;SDS011;64597;42.664;23.256;2024-02-16T08:04:18;8.15;;;5.53;;
6527;SDS011;64597;42.664;23.256;2024-02-16T08:06:54;10.85;;;6.05;;
6527;SDS011;64597;42.664;23.256;2024-02-16T08:09:21;8.55;;;5.15;;
6527;SDS011;64597;42.664;23.256;2024-02-16T08:11:49;13.30;;;5.97;;
6527;SDS011;64597;42.664;23.256;2024-02-16T08:14:17;14.10;;;7.10;;
6527;SDS011;64597;42.664;23.256;2024-02-16T08:16:45;13.10;;;7.63;;
6527;SDS011;64597;42.664;23.256;2024-02-16T08:19:13;12.52;;;7.85;;
6527;SDS011;64597;42.664;23.256;2024-02-16T08:21:39;10.75;;;7.38;;
6527;SDS011;64597;42.664;23.256;2024-02-16T08:24:05;10.00;;;6.88;;
6527;SDS011;64597;42.664;23.256;2024-02-16T08:26:31;13.57;;;7.60;;
6527;SDS011;64597;42.664;23.256;2024-02-16T08:28:58;14.27;;;9.13;;
6527;SDS011;64597;42.664;23.256;2024-02-16T08:31:24;14.00;;;9.52;;
6527;SDS011;64597;42.664;23.256;2024-02-16T08:33:50;14.63;;;10.40;;
6527;SDS011;64597;42.664;23.256;2024-02-16T08:36:15;14.63;;;10.15;;
6527;SDS011;64597;42.664;23.256;2024-02-16T08:38:41;10.93;;;8.88;;
6527;SDS011;64597;42.664;23.256;2024-02-16T08:41:06;17.38;;;11.45;;
6527;SDS011;64597;42.664;23.256;2024-02-16T08:43:32;20.33;;;11.27;;
6527;SDS011;64597;42.664;23.256;2024-02-16T08:45:57;17.38;;;11.27;;
6527;SDS011;64597;42.664;23.256;2024-02-16T08:48:24;13.20;;;8.60;;
6527;SDS011;64597;42.664;23.256;2024-02-16T08:50:50;17.52;;;9.43;;
6527;SDS011;64597;42.664;23.256;2024-02-16T08:53:15;9.65;;;7.03;;
6527;SDS011;64597;42.664;23.256;2024-02-16T08:55:42;10.43;;;7.95;;
6527;SDS011;64597;42.664;23.256;2024-02-16T08:58:07;13.90;;;8.00;;
6527;SDS011;64597;42.664;23.256;2024-02-16T09:00:33;13.63;;;8.75;;
6527;SDS011;64597;42.664;23.256;2024-02-16T09:02:59;11.23;;;6.35;;
6527;SDS011;64597;42.664;23.256;2024-02-16T09:05:28;13.77;;;7.60;;
6527;SDS011;64597;42.664;23.256;2024-02-16T09:07:54;14.15;;;8.20;;
6527;SDS011;64597;42.664;23.256;2024-02-16T09:10:19;11.85;;;7.53;;
6527;SDS011;64597;42.664;23.256;2024-02-16T09:12:45;12.43;;;7.38;;
6527;SDS011;64597;42.664;23.256;2024-02-16T09:15:11;12.23;;;6.82;;
6527;SDS011;64597;42.664;23.256;2024-02-16T09:17:37;8.93;;;6.45;;
6527;SDS011;64597;42.664;23.256;2024-02-16T09:20:02;8.65;;;6.95;;
6527;SDS011;64597;42.664;23.256;2024-02-16T09:22:29;8.95;;;6.20;;
6527;SDS011;64597;42.664;23.256;2024-02-16T09:24:54;8.95;;;5.90;;
6527;SDS011;64597;42.664;23.256;2024-02-16T09:27:24;6.75;;;5.25;;
6527;SDS011;64597;42.664;23.256;2024-02-16T09:29:50;7.65;;;5.47;;
6527;SDS011;64597;42.664;23.256;2024-02-16T09:32:16;8.77;;;5.90;;
6527;SDS011;64597;42.664;23.256;2024-02-16T09:34:41;8.10;;;6.50;;
6527;SDS011;64597;42.664;23.256;2024-02-16T09:37:07;10.38;;;6.85;;
6527;SDS011;64597;42.664;23.256;2024-02-16T09:39:34;13.77;;;6.85;;
6527;SDS011;64597;42.664;23.256;2024-02-16T09:42:00;11.95;;;5.78;;
6527;SDS011;64597;42.664;23.256;2024-02-16T09:44:28;9.38;;;5.72;;
6527;SDS011;64597;42.664;23.256;2024-02-16T09:46:56;7.05;;;4.93;;
6527;SDS011;64597;42.664;23.256;2024-02-16T09:49:24;8.82;;;5.60;;
6527;SDS011;64597;42.664;23.256;2024-02-16T09:51:51;7.10;;;4.78;;
6527;SDS011;64597;42.664;23.256;2024-02-16T09:54:22;6.95;;;4.82;;
6527;SDS011;64597;42.664;23.256;2024-02-16T09:56:51;8.07;;;4.45;;
6527;SDS011;64597;42.664;23.256;2024-02-16T09:59:21;8.65;;;4.88;;
6527;SDS011;64597;42.664;23.256;2024-02-16T10:01:48;13.95;;;5.13;;
6527;SDS011;64597;42.664;23.256;2024-02-16T10:04:24;7.43;;;4.22;;
6527;SDS011;64597;42.664;23.256;2024-02-16T10:06:50;7.50;;;4.93;;
6527;SDS011;64597;42.664;23.256;2024-02-16T10:09:23;5.55;;;4.30;;
6527;SDS011;64597;42.664;23.256;2024-02-16T10:11:49;7.13;;;5.00;;
6527;SDS011;64597;42.664;23.256;2024-02-16T10:14:15;4.60;;;4.00;;
6527;SDS011;64597;42.664;23.256;2024-02-16T10:16:41;6.25;;;3.83;;
6527;SDS011;64597;42.664;23.256;2024-02-16T10:19:07;4.88;;;3.85;;
6527;SDS011;64597;42.664;23.256;2024-02-16T10:24:05;5.32;;;3.67;;
6527;SDS011;64597;42.664;23.256;2024-02-16T10:26:34;4.57;;;3.50;;
6527;SDS011;64597;42.664;23.256;2024-02-16T10:29:11;6.35;;;3.95;;
6527;SDS011;64597;42.664;23.256;2024-02-16T10:32:00;4.57;;;3.83;;
6527;SDS011;64597;42.664;23.256;2024-02-16T10:34:27;7.97;;;3.65;;
6527;SDS011;64597;42.664;23.256;2024-02-16T10:36:55;11.05;;;4.82;;
6527;SDS011;64597;42.664;23.256;2024-02-16T10:39:25;4.20;;;3.47;;
6527;SDS011;64597;42.664;23.256;2024-02-16T10:42:03;5.07;;;3.45;;
6527;SDS011;64597;42.664;23.256;2024-02-16T10:45:38;4.90;;;4.40;;
6527;SDS011;64597;42.664;23.256;2024-02-16T10:51:54;7.13;;;4.82;;
6527;SDS011;64597;42.664;23.256;2024-02-16T10:56:57;5.72;;;3.20;;
6527;SDS011;64597;42.664;23.256;2024-02-16T11:02:09;5.78;;;3.72;;
6527;SDS011;64597;42.664;23.256;2024-02-16T11:04:36;6.15;;;4.05;;
6527;SDS011;64597;42.664;23.256;2024-02-16T11:07:11;5.57;;;3.80;;
6527;SDS011;64597;42.664;23.256;2024-02-16T11:09:42;6.95;;;3.85;;
6527;SDS011;64597;42.664;23.256;2024-02-16T11:12:09;9.88;;;5.07;;
6527;SDS011;64597;42.664;23.256;2024-02-16T11:17:11;6.55;;;4.30;;
6527;SDS011;64597;42.664;23.256;2024-02-16T11:19:45;6.43;;;4.85;;
6527;SDS011;64597;42.664;23.256;2024-02-16T11:22:16;6.28;;;4.20;;
6527;SDS011;64597;42.664;23.256;2024-02-16T11:24:45;6.45;;;4.65;;
6527;SDS011;64597;42.664;23.256;2024-02-16T11:27:12;7.22;;;4.35;;
6527;SDS011;64597;42.664;23.256;2024-02-16T11:29:48;7.68;;;4.32;;
6527;SDS011;64597;42.664;23.256;2024-02-16T11:32:14;7.05;;;4.80;;
6527;SDS011;64597;42.664;23.256;2024-02-16T11:34:40;9.10;;;4.38;;
6527;SDS011;64597;42.664;23.256;2024-02-16T11:37:07;6.78;;;4.32;;
6527;SDS011;64597;42.664;23.256;2024-02-16T11:39:33;15.48;;;5.82;;
6527;SDS011;64597;42.664;23.256;2024-02-16T11:42:03;6.00;;;3.83;;
6527;SDS011;64597;42.664;23.256;2024-02-16T11:44:35;8.52;;;4.38;;
6527;SDS011;64597;42.664;23.256;2024-02-16T11:47:05;7.97;;;4.18;;
6527;SDS011;64597;42.664;23.256;2024-02-16T11:49:34;6.10;;;3.03;;
6527;SDS011;64597;42.664;23.256;2024-02-16T11:52:01;9.23;;;3.67;;
6527;SDS011;64597;42.664;23.256;2024-02-16T11:54:29;7.68;;;3.38;;
6527;SDS011;64597;42.664;23.256;2024-02-16T11:57:03;9.27;;;4.00;;
6527;SDS011;64597;42.664;23.256;2024-02-16T11:59:34;7.50;;;4.10;;
6527;SDS011;64597;42.664;23.256;2024-02-16T12:02:16;8.82;;;4.03;;
6527;SDS011;64597;42.664;23.256;2024-02-16T12:04:45;5.78;;;4.32;;
6527;SDS011;64597;42.664;23.256;2024-02-16T12:07:27;6.38;;;4.43;;
6527;SDS011;64597;42.664;23.256;2024-02-16T12:10:00;10.13;;;4.32;;
6527;SDS011;64597;42.664;23.256;2024-02-16T12:12:30;10.77;;;4.00;;
6527;SDS011;64597;42.664;23.256;2024-02-16T12:14:56;6.35;;;3.85;;
6527;SDS011;64597;42.664;23.256;2024-02-16T12:17:22;6.97;;;3.35;;
6527;SDS011;64597;42.664;23.256;2024-02-16T12:19:49;5.63;;;3.58;;
6527;SDS011;64597;42.664;23.256;2024-02-16T12:22:21;7.97;;;4.20;;
6527;SDS011;64597;42.664;23.256;2024-02-16T12:24:47;6.35;;;3.72;;
6527;SDS011;64597;42.664;23.256;2024-02-16T12:27:13;6.22;;;3.63;;
6527;SDS011;64597;42.664;23.256;2024-02-16T12:29:39;6.32;;;4.13;;
6527;SDS011;64597;42.664;23.256;2024-02-16T12:32:05;5.65;;;3.75;;
6527;SDS011;64597;42.664;23.256;2024-02-16T12:34:31;6.15;;;3.95;;
6527;SDS011;64597;42.664;23.256;2024-02-16T12:36:56;7.05;;;4.05;;
6527;SDS011;64597;42.664;23.256;2024-02-16T12:39:22;8.05;;;4.10;;
6527;SDS011;64597;42.664;23.256;2024-02-16T12:41:47;7.10;;;4.30;;
6527;SDS011;64597;42.664;23.256;2024-02-16T12:44:14;7.40;;;4.07;;
6527;SDS011;64597;42.664;23.256;2024-02-16T12:46:40;5.35;;;4.03;;
6527;SDS011;64597;42.664;23.256;2024-02-16T12:49:07;5.78;;;4.50;;
6527;SDS011;64597;42.664;23.256;2024-02-16T12:51:33;8.18;;;4.38;;
6527;SDS011;64597;42.664;23.256;2024-02-16T12:53:59;5.45;;;4.15;;
6527;SDS011;64597;42.664;23.256;2024-02-16T12:56:25;6.90;;;4.18;;
6527;SDS011;64597;42.664;23.256;2024-02-16T12:58:51;5.60;;;3.45;;
6527;SDS011;64597;42.664;23.256;2024-02-16T13:01:17;4.95;;;3.42;;
6527;SDS011;64597;42.664;23.256;2024-02-16T13:03:43;7.15;;;3.65;;
6527;SDS011;64597;42.664;23.256;2024-02-16T13:06:09;4.93;;;3.78;;
6527;SDS011;64597;42.664;23.256;2024-02-16T13:08:35;4.97;;;3.80;;
6527;SDS011;64597;42.664;23.256;2024-02-16T13:11:01;5.10;;;3.80;;
6527;SDS011;64597;42.664;23.256;2024-02-16T13:13:28;5.55;;;3.65;;
6527;SDS011;64597;42.664;23.256;2024-02-16T13:15:53;4.93;;;3.60;;
6527;SDS011;64597;42.664;23.256;2024-02-16T13:18:21;6.07;;;3.85;;
6527;SDS011;64597;42.664;23.256;2024-02-16T13:20:46;6.18;;;3.33;;
6527;SDS011;64597;42.664;23.256;2024-02-16T13:23:13;5.45;;;3.15;;
6527;SDS011;64597;42.664;23.256;2024-02-16T13:25:40;5.95;;;3.50;;
6527;SDS011;64597;42.664;23.256;2024-02-16T13:28:05;6.13;;;3.70;;
6527;SDS011;64597;42.664;23.256;2024-02-16T13:30:32;5.72;;;3.42;;
6527;SDS011;64597;42.664;23.256;2024-02-16T13:32:59;5.38;;;3.47;;
6527;SDS011;64597;42.664;23.256;2024-02-16T13:35:25;6.32;;;3.38;;
6527;SDS011;64597;42.664;23.256;2024-02-16T13:37:54;8.85;;;3.90;;
6527;SDS011;64597;42.664;23.256;2024-02-16T13:40:21;6.72;;;3.55;;
6527;SDS011;64597;42.664;23.256;2024-02-16T13:42:49;7.10;;;3.20;;
6527;SDS011;64597;42.664;23.256;2024-02-16T13:45:16;5.30;;;3.15;;
6527;SDS011;64597;42.664;23.256;2024-02-16T13:47:43;7.95;;;3.50;;
6527;SDS011;64597;42.664;23.256;2024-02-16T13:50:09;7.53;;;3.05;;
6527;SDS011;64597;42.664;23.256;2024-02-16T13:52:35;6.15;;;4.20;;
6527;SDS011;64597;42.664;23.256;2024-02-16T13:55:02;7.47;;;3.75;;
6527;SDS011;64597;42.664;23.256;2024-02-16T13:57:29;10.52;;;5.10;;
6527;SDS011;64597;42.664;23.256;2024-02-16T13:59:55;4.88;;;3.53;;
6527;SDS011;64597;42.664;23.256;2024-02-16T14:02:21;5.60;;;3.75;;
6527;SDS011;64597;42.664;23.256;2024-02-16T14:04:47;6.20;;;4.20;;
6527;SDS011;64597;42.664;23.256;2024-02-16T14:07:17;6.40;;;3.83;;
6527;SDS011;64597;42.664;23.256;2024-02-16T14:09:44;4.60;;;3.47;;
6527;SDS011;64597;42.664;23.256;2024-02-16T14:12:10;7.03;;;4.00;;
6527;SDS011;64597;42.664;23.256;2024-02-16T14:14:37;4.82;;;3.53;;
6527;SDS011;64597;42.664;23.256;2024-02-16T14:17:06;5.40;;;4.18;;
6527;SDS011;64597;42.664;23.256;2024-02-16T14:19:35;5.10;;;3.60;;
6527;SDS011;64597;42.664;23.256;2024-02-16T14:22:12;6.47;;;3.15;;
6527;SDS011;64597;42.664;23.256;2024-02-16T14:25:33;6.15;;;3.28;;
6527;SDS011;64597;42.664;23.256;2024-02-16T14:28:03;5.10;;;3.72;;
6527;SDS011;64597;42.664;23.256;2024-02-16T14:30:32;7.15;;;3.67;;
6527;SDS011;64597;42.664;23.256;2024-02-16T14:33:00;6.55;;;3.40;;
6527;SDS011;64597;42.664;23.256;2024-02-16T14:38:52;9.25;;;3.95;;
6527;SDS011;64597;42.664;23.256;2024-02-16T14:44:04;11.15;;;4.97;;
6527;SDS011;64597;42.664;23.256;2024-02-16T14:46:31;7.50;;;4.57;;
6527;SDS011;64597;42.664;23.256;2024-02-16T14:48:57;6.20;;;3.50;;
6527;SDS011;64597;42.664;23.256;2024-02-16T14:51:23;6.75;;;3.35;;
6527;SDS011;64597;42.664;23.256;2024-02-16T14:53:49;5.35;;;3.67;;
6527;SDS011;64597;42.664;23.256;2024-02-16T14:56:15;5.72;;;2.85;;
6527;SDS011;64597;42.664;23.256;2024-02-16T14:58:44;5.50;;;2.97;;
6527;SDS011;64597;42.664;23.256;2024-02-16T15:01:10;5.60;;;3.10;;
6527;SDS011;64597;42.664;23.256;2024-02-16T15:03:37;6.43;;;3.50;;
6527;SDS011;64597;42.664;23.256;2024-02-16T15:06:02;9.73;;;3.65;;
6527;SDS011;64597;42.664;23.256;2024-02-16T15:08:29;7.68;;;3.88;;
6527;SDS011;64597;42.664;23.256;2024-02-16T15:10:55;7.50;;;4.55;;
6527;SDS011;64597;42.664;23.256;2024-02-16T15:13:21;12.32;;;4.70;;
6527;SDS011;64597;42.664;23.256;2024-02-16T15:15:52;7.07;;;4.03;;
6527;SDS011;64597;42.664;23.256;2024-02-16T15:19:20;7.20;;;5.32;;
6527;SDS011;64597;42.664;23.256;2024-02-16T15:21:46;10.77;;;5.60;;
6527;SDS011;64597;42.664;23.256;2024-02-16T15:24:13;11.13;;;5.85;;
6527;SDS011;64597;42.664;23.256;2024-02-16T15:26:41;9.60;;;4.38;;
6527;SDS011;64597;42.664;23.256;2024-02-16T15:29:06;11.93;;;4.80;;
6527;SDS011;64597;42.664;23.256;2024-02-16T15:31:32;12.60;;;6.57;;